sensor_id;sensor_type;location;lat;lon;timestamp;pressure;altitude;pressure_sealevel;temperature;humidity
56038;BME280;41907;47.848;9.000;2023-12-20T00:02:18;95948.63;;;4.35;100.00
56038;BME280;41907;47.848;9.000;2023-12-20T00:04:43;95933.28;;;4.17;100.00
56038;BME280;41907;47.848;9.000;2023-12-20T00:07:09;95968.66;;;4.05;100.00
56038;BME280;41907;47.848;9.000;2023-12-20T00:09:34;95974.22;;;4.14;100.00
56038;BME280;41907;47.848;9.000;2023-12-20T00:11:59;95975.00;;;4.25;100.00
56038;BME280;41907;47.848;9.000;2023-12-20T00:14:25;95967.63;;;4.22;100.00
56038;BME280;41907;47.848;9.000;2023-12-20T00:16:50;95957.06;;;4.27;100.00
56038;BME280;41907;47.848;9.000;2023-12-20T00:19:15;95959.72;;;4.32;100.00
56038;BME280;41907;47.848;9.000;2023-12-20T00:21:41;95957.34;;;4.35;100.00
56038;BME280;41907;47.848;9.000;2023-12-20T00:24:06;95941.25;;;4.42;100.00
56038;BME280;41907;47.848;9.000;2023-12-20T00:26:31;95940.19;;;4.43;100.00
56038;BME280;41907;47.848;9.000;2023-12-20T00:28:57;95940.19;;;4.38;100.00
56038;BME280;41907;47.848;9.000;2023-12-20T00:31:22;95924.34;;;4.38;100.00
56038;BME280;41907;47.848;9.000;2023-12-20T00:33:47;95923.53;;;4.37;100.00
56038;BME280;41907;47.848;9.000;2023-12-20T00:36:13;95904.75;;;4.08;100.00
56038;BME280;41907;47.848;9.000;2023-12-20T00:38:38;95882.88;;;4.13;100.00
56038;BME280;41907;47.848;9.000;2023-12-20T00:41:03;95882.88;;;4.13;100.00
56038;BME280;41907;47.848;9.000;2023-12-20T00:43:29;95877.31;;;4.09;100.00
56038;BME280;41907;47.848;9.000;2023-12-20T00:45:54;95900.03;;;4.26;100.00
56038;BME280;41907;47.848;9.000;2023-12-20T00:48:20;95904.81;;;4.24;100.00
56038;BME280;41907;47.848;9.000;2023-12-20T00:50:46;95900.84;;;4.21;100.00
56038;BME280;41907;47.848;9.000;2023-12-20T00:53:11;95911.13;;;4.28;100.00
56038;BME280;41907;47.848;9.000;2023-12-20T00:55:36;95908.50;;;4.38;100.00
56038;BME280;41907;47.848;9.000;2023-12-20T00:58:02;95898.44;;;4.35;100.00
56038;BME280;41907;47.848;9.000;2023-12-20T01:00:27;95894.78;;;4.41;100.00
56038;BME280;41907;47.848;9.000;2023-12-20T01:02:52;95901.66;;;4.42;100.00
56038;BME280;41907;47.848;9.000;2023-12-20T01:05:18;95904.28;;;4.42;100.00
56038;BME280;41907;47.848;9.000;2023-12-20T01:07:44;95892.91;;;4.46;100.00
56038;BME280;41907;47.848;9.000;2023-12-20T01:10:09;95900.84;;;4.46;100.00
56038;BME280;41907;47.848;9.000;2023-12-20T01:12:36;95902.41;;;4.47;100.00
56038;BME280;41907;47.848;9.000;2023-12-20T01:15:01;95897.41;;;4.46;100.00
56038;BME280;41907;47.848;9.000;2023-12-20T01:17:27;95897.41;;;4.51;100.00
56038;BME280;41907;47.848;9.000;2023-12-20T01:19:52;95890.53;;;4.50;100.00
56038;BME280;41907;47.848;9.000;2023-12-20T01:22:17;95891.09;;;4.42;100.00
56038;BME280;41907;47.848;9.000;2023-12-20T01:24:43;95887.09;;;4.34;100.00
56038;BME280;41907;47.848;9.000;2023-12-20T01:27:08;95886.03;;;4.35;100.00
56038;BME280;41907;47.848;9.000;2023-12-20T01:29:33;95881.81;;;4.29;100.00
56038;BME280;41907;47.848;9.000;2023-12-20T01:31:59;95889.47;;;4.36;100.00
56038;BME280;41907;47.848;9.000;2023-12-20T01:34:24;95892.41;;;4.39;100.00
56038;BME280;41907;47.848;9.000;2023-12-20T01:36:49;95900.84;;;4.36;100.00
56038;BME280;41907;47.848;9.000;2023-12-20T01:39:15;95897.69;;;4.39;100.00
56038;BME280;41907;47.848;9.000;2023-12-20T01:41:40;95890.28;;;4.41;100.00
56038;BME280;41907;47.848;9.000;2023-12-20T01:44:05;95895.56;;;4.41;100.00
56038;BME280;41907;47.848;9.000;2023-12-20T01:46:31;95887.09;;;4.34;100.00
56038;BME280;41907;47.848;9.000;2023-12-20T01:48:56;95881.31;;;4.32;100.00
56038;BME280;41907;47.848;9.000;2023-12-20T01:51:22;95877.59;;;4.28;100.00
56038;BME280;41907;47.848;9.000;2023-12-20T01:53:48;95886.31;;;4.24;100.00
56038;BME280;41907;47.848;9.000;2023-12-20T01:56:15;95882.09;;;4.28;100.00
56038;BME280;41907;47.848;9.000;2023-12-20T01:58:45;95893.72;;;4.32;100.00
56038;BME280;41907;47.848;9.000;2023-12-20T02:01:11;95894.75;;;4.36;100.00
56038;BME280;41907;47.848;9.000;2023-12-20T02:03:37;95904.03;;;4.33;100.00
56038;BME280;41907;47.848;9.000;2023-12-20T02:06:04;95893.97;;;4.35;100.00
56038;BME280;41907;47.848;9.000;2023-12-20T02:08:30;95881.81;;;4.39;100.00
56038;BME280;41907;47.848;9.000;2023-12-20T02:10:56;95881.03;;;4.29;100.00
56038;BME280;41907;47.848;9.000;2023-12-20T02:13:21;95874.19;;;4.33;100.00
56038;BME280;41907;47.848;9.000;2023-12-20T02:15:46;95868.63;;;4.29;100.00
56038;BME280;41907;47.848;9.000;2023-12-20T02:18:12;95875.78;;;4.34;100.00
56038;BME280;41907;47.848;9.000;2023-12-20T02:20:40;95871.25;;;4.39;100.00
56038;BME280;41907;47.848;9.000;2023-12-20T02:23:06;95876.00;;;4.37;100.00
56038;BME280;41907;47.848;9.000;2023-12-20T02:25:31;95866.75;;;4.45;100.00
56038;BME280;41907;47.848;9.000;2023-12-20T02:27:56;95863.34;;;4.34;100.00
56038;BME280;41907;47.848;9.000;2023-12-20T02:30:22;95855.44;;;4.29;100.00
56038;BME280;41907;47.848;9.000;2023-12-20T02:32:49;95852.25;;;4.32;100.00
56038;BME280;41907;47.848;9.000;2023-12-20T02:35:14;95842.47;;;4.38;100.00
56038;BME280;41907;47.848;9.000;2023-12-20T02:37:40;95844.84;;;4.34;100.00
56038;BME280;41907;47.848;9.000;2023-12-20T02:40:06;95836.94;;;4.34;100.00
56038;BME280;41907;47.848;9.000;2023-12-20T02:42:31;95842.22;;;4.39;100.00
56038;BME280;41907;47.848;9.000;2023-12-20T02:44:57;95855.44;;;4.39;100.00
56038;BME280;41907;47.848;9.000;2023-12-20T02:47:22;95853.03;;;4.48;100.00
56038;BME280;41907;47.848;9.000;2023-12-20T02:49:48;95863.63;;;4.43;100.00
56038;BME280;41907;47.848;9.000;2023-12-20T02:52:14;95869.94;;;4.52;100.00
56038;BME280;41907;47.848;9.000;2023-12-20T02:54:39;95871.53;;;4.43;100.00
56038;BME280;41907;47.848;9.000;2023-12-20T02:57:05;95868.91;;;4.43;100.00
56038;BME280;41907;47.848;9.000;2023-12-20T02:59:30;95870.19;;;4.45;100.00
56038;BME280;41907;47.848;9.000;2023-12-20T03:01:55;95857.28;;;4.39;100.00
56038;BME280;41907;47.848;9.000;2023-12-20T03:04:20;95857.00;;;4.30;100.00
56038;BME280;41907;47.848;9.000;2023-12-20T03:06:46;95856.75;;;4.37;100.00
56038;BME280;41907;47.848;9.000;2023-12-20T03:09:11;95862.56;;;4.29;100.00
56038;BME280;41907;47.848;9.000;2023-12-20T03:11:37;95861.75;;;4.28;100.00
56038;BME280;41907;47.848;9.000;2023-12-20T03:14:02;95867.84;;;4.24;100.00
56038;BME280;41907;47.848;9.000;2023-12-20T03:16:27;95870.75;;;4.22;100.00
56038;BME280;41907;47.848;9.000;2023-12-20T03:18:53;95862.81;;;4.17;100.00
56038;BME280;41907;47.848;9.000;2023-12-20T03:21:18;95871.25;;;4.19;100.00
56038;BME280;41907;47.848;9.000;2023-12-20T03:23:44;95867.56;;;4.10;100.00
56038;BME280;41907;47.848;9.000;2023-12-20T03:26:09;95868.34;;;4.10;100.00
56038;BME280;41907;47.848;9.000;2023-12-20T03:28:36;95876.00;;;4.07;100.00
56038;BME280;41907;47.848;9.000;2023-12-20T03:31:02;95876.78;;;4.07;100.00
56038;BME280;41907;47.848;9.000;2023-12-20T03:33:27;95881.28;;;4.02;100.00
56038;BME280;41907;47.848;9.000;2023-12-20T03:35:53;95884.16;;;4.00;100.00
56038;BME280;41907;47.848;9.000;2023-12-20T03:38:18;95885.75;;;4.01;100.00
56038;BME280;41907;47.848;9.000;2023-12-20T03:40:44;95891.31;;;3.95;100.00
56038;BME280;41907;47.848;9.000;2023-12-20T03:43:09;95890.25;;;4.01;100.00
56038;BME280;41907;47.848;9.000;2023-12-20T03:45:34;95887.88;;;4.04;100.00
56038;BME280;41907;47.848;9.000;2023-12-20T03:48:00;95894.44;;;3.97;100.00
56038;BME280;41907;47.848;9.000;2023-12-20T03:50:26;95899.50;;;4.03;100.00
56038;BME280;41907;47.848;9.000;2023-12-20T03:52:51;95898.69;;;4.03;100.00
56038;BME280;41907;47.848;9.000;2023-12-20T03:55:17;95905.03;;;4.07;100.00
56038;BME280;41907;47.848;9.000;2023-12-20T03:57:42;95912.94;;;4.02;100.00
56038;BME280;41907;47.848;9.000;2023-12-20T04:00:08;95907.41;;;4.03;100.00
56038;BME280;41907;47.848;9.000;2023-12-20T04:02:37;95908.97;;;3.99;100.00
56038;BME280;41907;47.848;9.000;2023-12-20T04:05:03;95910.59;;;4.05;100.00
56038;BME280;41907;47.848;9.000;2023-12-20T04:07:28;95912.44;;;4.05;100.00
56038;BME280;41907;47.848;9.000;2023-12-20T04:09:54;95914.00;;;4.06;100.00
56038;BME280;41907;47.848;9.000;2023-12-20T04:12:20;95916.38;;;4.02;100.00
56038;BME280;41907;47.848;9.000;2023-12-20T04:14:45;95925.09;;;4.08;100.00
56038;BME280;41907;47.848;9.000;2023-12-20T04:17:11;95925.38;;;4.11;100.00
56038;BME280;41907;47.848;9.000;2023-12-20T04:19:36;95924.84;;;4.09;100.00
56038;BME280;41907;47.848;9.000;2023-12-20T04:22:01;95923.00;;;4.05;100.00
56038;BME280;41907;47.848;9.000;2023-12-20T04:24:27;95917.72;;;4.05;100.00
56038;BME280;41907;47.848;9.000;2023-12-20T04:26:52;95925.91;;;4.14;100.00
56038;BME280;41907;47.848;9.000;2023-12-20T04:29:17;95923.25;;;4.08;100.00
56038;BME280;41907;47.848;9.000;2023-12-20T04:31:43;95926.44;;;4.05;100.00
56038;BME280;41907;47.848;9.000;2023-12-20T04:34:08;95930.59;;;3.96;100.00
56038;BME280;41907;47.848;9.000;2023-12-20T04:36:34;95936.69;;;4.02;100.00
56038;BME280;41907;47.848;9.000;2023-12-20T04:38:59;95940.94;;;4.03;100.00
56038;BME280;41907;47.848;9.000;2023-12-20T04:41:25;95938.56;;;4.11;100.00
56038;BME280;41907;47.848;9.000;2023-12-20T04:43:50;95941.72;;;4.03;100.00
56038;BME280;41907;47.848;9.000;2023-12-20T04:46:15;95943.03;;;4.16;100.00
56038;BME280;41907;47.848;9.000;2023-12-20T04:48:41;95945.69;;;4.16;100.00
56038;BME280;41907;47.848;9.000;2023-12-20T04:51:06;95950.19;;;4.05;100.00
56038;BME280;41907;47.848;9.000;2023-12-20T04:53:31;95956.00;;;4.23;100.00
56038;BME280;41907;47.848;9.000;2023-12-20T04:55:56;95954.91;;;4.08;100.00
56038;BME280;41907;47.848;9.000;2023-12-20T04:58:22;95949.41;;;4.15;100.00
56038;BME280;41907;47.848;9.000;2023-12-20T05:00:47;95954.91;;;4.03;100.00
56038;BME280;41907;47.848;9.000;2023-12-20T05:03:13;95952.81;;;4.05;100.00
56038;BME280;41907;47.848;9.000;2023-12-20T05:05:38;95945.66;;;4.06;100.00
56038;BME280;41907;47.848;9.000;2023-12-20T05:08:04;95961.25;;;4.02;100.00
56038;BME280;41907;47.848;9.000;2023-12-20T05:10:30;95952.53;;;4.02;100.00
56038;BME280;41907;47.848;9.000;2023-12-20T05:12:55;95955.97;;;4.07;100.00
56038;BME280;41907;47.848;9.000;2023-12-20T05:15:20;95956.25;;;4.11;100.00
56038;BME280;41907;47.848;9.000;2023-12-20T05:17:46;95963.13;;;4.17;100.00
56038;BME280;41907;47.848;9.000;2023-12-20T05:20:11;95962.88;;;4.24;100.00
56038;BME280;41907;47.848;9.000;2023-12-20T05:22:36;95974.22;;;4.14;100.00
56038;BME280;41907;47.848;9.000;2023-12-20T05:25:02;95988.47;;;4.18;100.00
56038;BME280;41907;47.848;9.000;2023-12-20T05:27:27;95995.63;;;4.33;100.00
56038;BME280;41907;47.848;9.000;2023-12-20T05:29:53;95987.72;;;4.33;100.00
56038;BME280;41907;47.848;9.000;2023-12-20T05:32:22;95977.13;;;4.23;100.00
56038;BME280;41907;47.848;9.000;2023-12-20T05:34:47;95972.06;;;4.06;100.00
56038;BME280;41907;47.848;9.000;2023-12-20T05:37:13;95980.75;;;4.01;100.00
56038;BME280;41907;47.848;9.000;2023-12-20T05:39:38;95976.81;;;4.04;100.00
56038;BME280;41907;47.848;9.000;2023-12-20T05:42:04;95978.41;;;4.10;100.00
56038;BME280;41907;47.848;9.000;2023-12-20T05:44:29;95986.06;;;4.11;100.00
56038;BME280;41907;47.848;9.000;2023-12-20T05:46:55;95988.97;;;4.10;100.00
56038;BME280;41907;47.848;9.000;2023-12-20T05:49:20;95993.22;;;4.21;100.00
56038;BME280;41907;47.848;9.000;2023-12-20T05:51:47;95987.16;;;4.26;100.00
56038;BME280;41907;47.848;9.000;2023-12-20T05:54:12;95981.59;;;4.17;100.00
56038;BME280;41907;47.848;9.000;2023-12-20T05:56:37;95982.66;;;4.26;100.00
56038;BME280;41907;47.848;9.000;2023-12-20T05:59:03;95980.28;;;4.25;100.00
56038;BME280;41907;47.848;9.000;2023-12-20T06:01:28;95987.94;;;4.26;100.00
56038;BME280;41907;47.848;9.000;2023-12-20T06:03:54;95995.09;;;4.31;100.00
56038;BME280;41907;47.848;9.000;2023-12-20T06:06:19;96012.56;;;4.42;100.00
56038;BME280;41907;47.848;9.000;2023-12-20T06:08:44;96006.16;;;4.23;100.00
56038;BME280;41907;47.848;9.000;2023-12-20T06:11:10;96006.44;;;4.26;100.00
56038;BME280;41907;47.848;9.000;2023-12-20T06:13:35;96006.72;;;4.30;100.00
56038;BME280;41907;47.848;9.000;2023-12-20T06:16:00;96012.53;;;4.32;100.00
56038;BME280;41907;47.848;9.000;2023-12-20T06:18:26;96022.84;;;4.38;100.00
56038;BME280;41907;47.848;9.000;2023-12-20T06:20:51;96019.66;;;4.36;100.00
56038;BME280;41907;47.848;9.000;2023-12-20T06:23:17;96023.34;;;4.30;100.00
56038;BME280;41907;47.848;9.000;2023-12-20T06:25:43;96026.78;;;4.31;100.00
56038;BME280;41907;47.848;9.000;2023-12-20T06:28:09;96022.31;;;4.41;100.00
56038;BME280;41907;47.848;9.000;2023-12-20T06:30:35;96030.28;;;4.52;100.00
56038;BME280;41907;47.848;9.000;2023-12-20T06:33:00;96034.75;;;4.51;100.00
56038;BME280;41907;47.848;9.000;2023-12-20T06:35:26;96035.28;;;4.58;100.00
56038;BME280;41907;47.848;9.000;2023-12-20T06:37:51;96031.59;;;4.59;100.00
56038;BME280;41907;47.848;9.000;2023-12-20T06:40:17;96035.00;;;4.55;100.00
56038;BME280;41907;47.848;9.000;2023-12-20T06:42:44;96044.81;;;4.59;100.00
56038;BME280;41907;47.848;9.000;2023-12-20T06:45:10;96038.22;;;4.62;100.00
56038;BME280;41907;47.848;9.000;2023-12-20T06:47:35;96050.06;;;4.54;100.00
56038;BME280;41907;47.848;9.000;2023-12-20T06:50:00;96049.28;;;4.43;100.00
56038;BME280;41907;47.848;9.000;2023-12-20T06:52:26;96049.78;;;4.45;100.00
56038;BME280;41907;47.848;9.000;2023-12-20T06:54:51;96052.16;;;4.47;100.00
56038;BME280;41907;47.848;9.000;2023-12-20T06:57:17;96051.91;;;4.48;100.00
56038;BME280;41907;47.848;9.000;2023-12-20T06:59:42;96047.16;;;4.51;100.00
56038;BME280;41907;47.848;9.000;2023-12-20T07:02:08;96051.66;;;4.50;100.00
56038;BME280;41907;47.848;9.000;2023-12-20T07:04:34;96053.22;;;4.46;100.00
56038;BME280;41907;47.848;9.000;2023-12-20T07:06:59;96063.75;;;4.36;100.00
56038;BME280;41907;47.848;9.000;2023-12-20T07:09:26;96064.78;;;4.35;100.00
56038;BME280;41907;47.848;9.000;2023-12-20T07:11:51;96063.53;;;4.42;100.00
56038;BME280;41907;47.848;9.000;2023-12-20T07:14:16;96061.16;;;4.51;100.00
56038;BME280;41907;47.848;9.000;2023-12-20T07:16:42;96061.44;;;4.60;100.00
56038;BME280;41907;47.848;9.000;2023-12-20T07:19:07;96055.88;;;4.56;100.00
56038;BME280;41907;47.848;9.000;2023-12-20T07:21:32;96058.53;;;4.56;100.00
56038;BME280;41907;47.848;9.000;2023-12-20T07:23:58;96055.09;;;4.56;100.00
56038;BME280;41907;47.848;9.000;2023-12-20T07:26:23;96059.06;;;4.58;100.00
56038;BME280;41907;47.848;9.000;2023-12-20T07:28:49;96062.78;;;4.62;100.00
56038;BME280;41907;47.848;9.000;2023-12-20T07:31:17;96068.28;;;4.51;100.00
56038;BME280;41907;47.848;9.000;2023-12-20T07:33:42;96073.34;;;4.62;100.00
56038;BME280;41907;47.848;9.000;2023-12-20T07:36:08;96073.34;;;4.72;100.00
56038;BME280;41907;47.848;9.000;2023-12-20T07:38:33;96075.97;;;4.72;100.00
56038;BME280;41907;47.848;9.000;2023-12-20T07:40:59;96081.28;;;4.67;100.00
56038;BME280;41907;47.848;9.000;2023-12-20T07:43:25;96082.88;;;4.68;100.00
56038;BME280;41907;47.848;9.000;2023-12-20T07:45:50;96068.84;;;4.68;100.00
56038;BME280;41907;47.848;9.000;2023-12-20T07:48:15;96065.97;;;4.69;100.00
56038;BME280;41907;47.848;9.000;2023-12-20T07:50:41;96074.41;;;4.71;100.00
56038;BME280;41907;47.848;9.000;2023-12-20T07:53:07;96082.09;;;4.83;100.00
56038;BME280;41907;47.848;9.000;2023-12-20T07:55:32;96068.59;;;4.74;100.00
56038;BME280;41907;47.848;9.000;2023-12-20T07:57:58;96089.25;;;4.88;100.00
56038;BME280;41907;47.848;9.000;2023-12-20T08:00:24;96091.06;;;4.92;100.00
56038;BME280;41907;47.848;9.000;2023-12-20T08:02:49;96093.72;;;4.87;100.00
56038;BME280;41907;47.848;9.000;2023-12-20T08:05:14;96101.66;;;4.97;100.00
56038;BME280;41907;47.848;9.000;2023-12-20T08:07:40;96110.94;;;5.00;100.00
56038;BME280;41907;47.848;9.000;2023-12-20T08:10:05;96106.13;;;4.92;100.00
56038;BME280;41907;47.848;9.000;2023-12-20T08:12:31;96108.81;;;4.97;100.00
56038;BME280;41907;47.848;9.000;2023-12-20T08:14:56;96096.13;;;4.89;100.00
56038;BME280;41907;47.848;9.000;2023-12-20T08:17:22;96099.03;;;5.02;100.00
56038;BME280;41907;47.848;9.000;2023-12-20T08:19:48;96103.50;;;5.02;100.00
56038;BME280;41907;47.848;9.000;2023-12-20T08:22:14;96105.91;;;5.03;100.00
56038;BME280;41907;47.848;9.000;2023-12-20T08:24:39;96112.25;;;5.12;100.00
56038;BME280;41907;47.848;9.000;2023-12-20T08:27:05;96102.72;;;5.11;100.00
56038;BME280;41907;47.848;9.000;2023-12-20T08:29:30;96101.69;;;5.22;100.00
56038;BME280;41907;47.848;9.000;2023-12-20T08:31:56;96107.25;;;5.31;100.00
56038;BME280;41907;47.848;9.000;2023-12-20T08:34:22;96101.94;;;5.31;100.00
56038;BME280;41907;47.848;9.000;2023-12-20T08:36:47;96106.97;;;5.33;100.00
56038;BME280;41907;47.848;9.000;2023-12-20T08:39:12;96109.91;;;5.36;100.00
56038;BME280;41907;47.848;9.000;2023-12-20T08:41:38;96105.66;;;5.35;100.00
56038;BME280;41907;47.848;9.000;2023-12-20T08:44:03;96113.59;;;5.40;100.00
56038;BME280;41907;47.848;9.000;2023-12-20T08:46:29;96113.34;;;5.47;100.00
56038;BME280;41907;47.848;9.000;2023-12-20T08:48:54;96123.38;;;5.50;100.00
56038;BME280;41907;47.848;9.000;2023-12-20T08:51:20;96124.16;;;5.50;100.00
56038;BME280;41907;47.848;9.000;2023-12-20T08:53:46;96119.41;;;5.47;100.00
56038;BME280;41907;47.848;9.000;2023-12-20T08:56:12;96104.34;;;5.53;100.00
56038;BME280;41907;47.848;9.000;2023-12-20T08:58:38;96108.31;;;5.45;100.00
56038;BME280;41907;47.848;9.000;2023-12-20T09:01:03;96104.06;;;5.54;100.00
56038;BME280;41907;47.848;9.000;2023-12-20T09:03:28;96100.88;;;5.57;100.00
56038;BME280;41907;47.848;9.000;2023-12-20T09:05:54;96106.44;;;5.56;100.00
56038;BME280;41907;47.848;9.000;2023-12-20T09:08:19;96107.22;;;5.61;100.00
56038;BME280;41907;47.848;9.000;2023-12-20T09:10:44;96108.28;;;5.60;100.00
56038;BME280;41907;47.848;9.000;2023-12-20T09:13:10;96103.81;;;5.46;100.00
56038;BME280;41907;47.848;9.000;2023-12-20T09:15:35;96108.56;;;5.54;100.00
56038;BME280;41907;47.848;9.000;2023-12-20T09:18:01;96113.56;;;5.60;100.00
56038;BME280;41907;47.848;9.000;2023-12-20T09:20:26;96115.94;;;5.72;100.00
56038;BME280;41907;47.848;9.000;2023-12-20T09:22:52;96115.97;;;5.62;100.00
56038;BME280;41907;47.848;9.000;2023-12-20T09:25:18;96122.31;;;5.41;100.00
56038;BME280;41907;47.848;9.000;2023-12-20T09:27:43;96127.34;;;5.52;100.00
56038;BME280;41907;47.848;9.000;2023-12-20T09:30:09;96125.50;;;5.43;100.00
56038;BME280;41907;47.848;9.000;2023-12-20T09:32:35;96127.88;;;5.39;100.00
56038;BME280;41907;47.848;9.000;2023-12-20T09:35:01;96124.19;;;5.35;100.00
56038;BME280;41907;47.848;9.000;2023-12-20T09:37:27;96130.50;;;5.29;100.00
56038;BME280;41907;47.848;9.000;2023-12-20T09:39:52;96140.03;;;5.30;100.00
56038;BME280;41907;47.848;9.000;2023-12-20T09:42:35;96141.09;;;5.34;100.00
56038;BME280;41907;47.848;9.000;2023-12-20T09:45:03;96136.84;;;5.58;100.00
56038;BME280;41907;47.848;9.000;2023-12-20T09:47:31;96137.91;;;5.68;100.00
56038;BME280;41907;47.848;9.000;2023-12-20T09:49:57;96127.84;;;5.70;100.00
56038;BME280;41907;47.848;9.000;2023-12-20T09:52:24;96137.09;;;5.77;100.00
56038;BME280;41907;47.848;9.000;2023-12-20T09:54:49;96132.63;;;5.63;100.00
56038;BME280;41907;47.848;9.000;2023-12-20T09:57:17;96135.25;;;5.68;100.00
56038;BME280;41907;47.848;9.000;2023-12-20T09:59:43;96117.28;;;5.70;100.00
56038;BME280;41907;47.848;9.000;2023-12-20T10:02:12;96116.47;;;5.59;100.00
56038;BME280;41907;47.848;9.000;2023-12-20T10:04:44;96106.44;;;5.56;100.00
56038;BME280;41907;47.848;9.000;2023-12-20T10:07:11;96105.91;;;5.64;100.00
56038;BME280;41907;47.848;9.000;2023-12-20T10:09:36;96106.69;;;5.85;100.00
56038;BME280;41907;47.848;9.000;2023-12-20T10:12:03;96097.16;;;5.69;100.00
56038;BME280;41907;47.848;9.000;2023-12-20T10:14:30;96088.16;;;5.70;100.00
56038;BME280;41907;47.848;9.000;2023-12-20T10:17:02;96086.03;;;5.82;100.00
56038;BME280;41907;47.848;9.000;2023-12-20T10:19:28;96074.38;;;5.83;100.00
56038;BME280;41907;47.848;9.000;2023-12-20T10:21:54;96080.72;;;5.82;100.00
56038;BME280;41907;47.848;9.000;2023-12-20T10:24:19;96078.88;;;5.82;100.00
56038;BME280;41907;47.848;9.000;2023-12-20T10:26:45;96079.66;;;5.98;100.00
56038;BME280;41907;47.848;9.000;2023-12-20T10:29:10;96074.25;;;6.23;100.00
56038;BME280;41907;47.848;9.000;2023-12-20T10:31:36;96072.75;;;6.07;100.00
56038;BME280;41907;47.848;9.000;2023-12-20T10:34:02;96079.38;;;6.05;100.00
56038;BME280;41907;47.848;9.000;2023-12-20T10:36:30;96062.97;;;5.97;100.00
56038;BME280;41907;47.848;9.000;2023-12-20T10:38:56;96069.03;;;6.08;100.00
56038;BME280;41907;47.848;9.000;2023-12-20T10:43:51;96062.69;;;6.09;100.00
56038;BME280;41907;47.848;9.000;2023-12-20T10:46:17;96061.13;;;5.98;100.00
56038;BME280;41907;47.848;9.000;2023-12-20T10:48:44;96061.38;;;6.02;100.00
56038;BME280;41907;47.848;9.000;2023-12-20T10:51:11;96065.03;;;6.16;100.00
56038;BME280;41907;47.848;9.000;2023-12-20T10:53:37;96062.06;;;6.27;100.00
56038;BME280;41907;47.848;9.000;2023-12-20T10:56:05;96042.72;;;6.32;100.00
56038;BME280;41907;47.848;9.000;2023-12-20T10:58:33;96039.56;;;6.25;100.00
56038;BME280;41907;47.848;9.000;2023-12-20T11:01:02;96046.44;;;6.31;100.00
56038;BME280;41907;47.848;9.000;2023-12-20T11:03:32;96043.50;;;6.32;100.00
56038;BME280;41907;47.848;9.000;2023-12-20T11:06:10;96041.38;;;6.34;100.00
56038;BME280;41907;47.848;9.000;2023-12-20T11:11:25;96035.63;;;7.05;100.00
56038;BME280;41907;47.848;9.000;2023-12-20T11:14:03;96034.59;;;7.35;100.00
56038;BME280;41907;47.848;9.000;2023-12-20T11:16:33;96041.78;;;7.30;100.00
56038;BME280;41907;47.848;9.000;2023-12-20T11:19:04;96037.56;;;7.29;100.00
56038;BME280;41907;47.848;9.000;2023-12-20T11:21:30;96039.38;;;6.99;100.00
56038;BME280;41907;47.848;9.000;2023-12-20T11:23:55;96038.34;;;6.95;100.00
56038;BME280;41907;47.848;9.000;2023-12-20T11:26:27;96039.88;;;7.06;100.00
56038;BME280;41907;47.848;9.000;2023-12-20T11:28:53;96040.84;;;6.82;100.00
56038;BME280;41907;47.848;9.000;2023-12-20T11:31:19;96037.78;;;6.98;100.00
56038;BME280;41907;47.848;9.000;2023-12-20T11:33:45;96033.28;;;6.99;100.00
56038;BME280;41907;47.848;9.000;2023-12-20T11:36:18;96043.44;;;7.26;100.00
56038;BME280;41907;47.848;9.000;2023-12-20T11:38:54;96031.63;;;7.37;100.00
56038;BME280;41907;47.848;9.000;2023-12-20T11:41:22;96040.19;;;7.34;100.00
56038;BME280;41907;47.848;9.000;2023-12-20T11:43:48;96029.06;;;7.27;100.00
56038;BME280;41907;47.848;9.000;2023-12-20T11:46:14;96038.25;;;7.39;100.00
56038;BME280;41907;47.848;9.000;2023-12-20T11:48:39;96029.47;;;7.44;100.00
56038;BME280;41907;47.848;9.000;2023-12-20T11:51:14;96040.53;;;7.22;100.00
56038;BME280;41907;47.848;9.000;2023-12-20T11:53:40;96034.88;;;7.00;100.00
56038;BME280;41907;47.848;9.000;2023-12-20T11:56:07;96027.50;;;6.92;100.00
56038;BME280;41907;47.848;9.000;2023-12-20T11:58:36;96036.31;;;6.87;100.00
56038;BME280;41907;47.848;9.000;2023-12-20T12:01:02;96033.44;;;6.79;100.00
56038;BME280;41907;47.848;9.000;2023-12-20T12:03:27;96025.78;;;6.77;100.00
56038;BME280;41907;47.848;9.000;2023-12-20T12:05:53;96037.44;;;6.71;100.00
56038;BME280;41907;47.848;9.000;2023-12-20T12:08:18;96033.53;;;6.63;100.00
56038;BME280;41907;47.848;9.000;2023-12-20T12:10:44;96031.06;;;6.77;100.00
56038;BME280;41907;47.848;9.000;2023-12-20T12:13:10;96030.34;;;6.61;100.00
56038;BME280;41907;47.848;9.000;2023-12-20T12:15:36;96029.66;;;6.46;100.00
56038;BME280;41907;47.848;9.000;2023-12-20T12:18:02;96029.56;;;6.61;100.00
56038;BME280;41907;47.848;9.000;2023-12-20T12:20:28;96024.31;;;6.56;100.00
56038;BME280;41907;47.848;9.000;2023-12-20T12:23:03;96022.38;;;6.66;100.00
56038;BME280;41907;47.848;9.000;2023-12-20T12:25:34;96025.25;;;6.70;100.00
56038;BME280;41907;47.848;9.000;2023-12-20T12:28:00;96018.41;;;6.69;100.00
56038;BME280;41907;47.848;9.000;2023-12-20T12:30:25;96018.91;;;6.71;100.00
56038;BME280;41907;47.848;9.000;2023-12-20T12:32:52;96019.91;;;6.80;100.00
56038;BME280;41907;47.848;9.000;2023-12-20T12:35:18;96024.13;;;6.86;100.00
56038;BME280;41907;47.848;9.000;2023-12-20T12:37:44;96021.66;;;6.95;100.00
56038;BME280;41907;47.848;9.000;2023-12-20T12:40:10;96035.44;;;6.97;100.00
56038;BME280;41907;47.848;9.000;2023-12-20T12:42:37;96031.28;;;6.86;100.00
56038;BME280;41907;47.848;9.000;2023-12-20T12:45:02;96032.88;;;6.82;100.00
56038;BME280;41907;47.848;9.000;2023-12-20T12:47:28;96031.28;;;6.81;100.00
56038;BME280;41907;47.848;9.000;2023-12-20T12:49:53;96034.00;;;6.70;100.00
56038;BME280;41907;47.848;9.000;2023-12-20T12:52:19;96034.56;;;6.67;100.00
56038;BME280;41907;47.848;9.000;2023-12-20T12:54:45;96033.22;;;6.70;100.00
56038;BME280;41907;47.848;9.000;2023-12-20T12:57:11;96034.25;;;6.74;100.00
56038;BME280;41907;47.848;9.000;2023-12-20T12:59:36;96033.50;;;6.68;100.00